ADDS METAR Data INFO
IDs: Format: Raw Decoded Include TAF

Data at: 1810 UTC 24 Nov 2017

KLBX 241753Z AUTO VRB03KT 10SM CLR 21/03 A3002 RMK AO2 SLP163 T02110033 10217 20039 58016
KLBX 241653Z AUTO 00000KT 10SM CLR 20/04 A3005 RMK AO2 SLP174 T02000039
KLBX 241553Z AUTO VRB03KT 10SM CLR 18/06 A3006 RMK AO2 SLP180 T01830056
KLBX 241453Z AUTO 00000KT 10SM CLR 14/09 A3006 RMK AO2 SLP179 T01390089 51008
KLBX 241353Z AUTO 00000KT 10SM CLR 07/05 A3006 RMK AO2 SLP177 T00720050
KLBX 241253Z AUTO 00000KT 8SM CLR 04/03 A3005 RMK AO2 SLP174 T00390028 $
KLBX 241153Z AUTO 00000KT 7SM CLR 04/03 A3004 RMK AO2 SLP171 T00390028 10061 20039 55002 $
KLBX 241053Z AUTO 00000KT 8SM CLR 04/03 A3003 RMK AO2 SLP169 T00440033 $
KLBX 240953Z AUTO 00000KT 8SM CLR 05/04 A3004 RMK AO2 SLP173 T00500039 $
KLBX 240853Z AUTO 00000KT 10SM CLR 04/03 A3004 RMK AO2 SLP173 T00440033 56013
KLBX 240753Z AUTO 00000KT 10SM CLR 06/04 A3005 RMK AO2 SLP175 T00560039
KLBX 240653Z AUTO 00000KT 10SM CLR 06/04 A3007 RMK AO2 SLP181 T00560039
KLBX 240553Z AUTO 00000KT 10SM CLR 06/04 A3008 RMK AO2 SLP186 T00560039 10122 20056 402000039 58007
KLBX 240453Z AUTO 00000KT 10SM CLR 07/04 A3009 RMK AO2 SLP190 T00670044
KLBX 240353Z AUTO 00000KT 10SM CLR 07/04 A3010 RMK AO2 SLP191 T00720044
KLBX 240253Z AUTO 00000KT 10SM CLR 08/04 A3010 RMK AO2 SLP194 T00780044 50007
KLBX 240153Z AUTO 00000KT 10SM CLR 08/04 A3011 RMK AO2 SLP194 T00830044
KLBX 240053Z AUTO 00000KT 10SM CLR 10/04 A3010 RMK AO2 SLP191 T01000039
KLBX 232353Z AUTO 00000KT 10SM CLR 12/04 A3008 RMK AO2 SLP186 T01220039 10200 20122 58001
KLBX 232253Z AUTO 36005KT 10SM CLR 17/01 A3009 RMK AO2 SLP187 T01720011
KLBX 232153Z AUTO 36004KT 10SM CLR 19/00 A3008 RMK AO2 SLP187 T01940000
KLBX 232053Z AUTO 33006KT 10SM CLR 20/01 A3009 RMK AO2 SLP187 T02000006 56027
KLBX 231953Z AUTO 01008KT 10SM CLR 19/01 A3011 RMK AO2 SLP194 T01940011
KLBX 231853Z AUTO 02005KT 10SM CLR 18/02 A3013 RMK AO2 SLP203 T01780017
KLBX 231753Z AUTO 02009KT 10SM CLR 17/03 A3017 RMK AO2 SLP214 T01720033 10172 20039 58014
KLBX 231653Z AUTO 03005KT 10SM CLR 16/03 A3020 RMK AO2 SLP225 T01560033
KLBX 231553Z AUTO 04007KT 10SM CLR 14/05 A3021 RMK AO2 SLP228 T01390050
KLBX 231453Z AUTO 03007KT CLR 11/04 A3021 RMK AO2 SLP228 T01110044 51006 $
KLBX 231353Z AUTO 01006KT 10SM CLR 08/04 A3020 RMK AO2 SLP227 T00780044 $
KLBX 231253Z AUTO 35004KT 10SM CLR 05/03 A3019 RMK AO2 SLP224 T00500028
KLBX 231153Z AUTO 35003KT 10SM CLR 05/03 A3019 RMK AO2 SLP222 T00500028 10106 20044 53000
KLBX 231053Z AUTO 36004KT 10SM CLR 05/02 A3019 RMK AO2 SLP222 T00500022
KLBX 230953Z AUTO 35003KT 10SM CLR 07/03 A3018 RMK AO2 SLP220 T00720028
KLBX 230853Z AUTO 36005KT 10SM CLR 08/03 A3019 RMK AO2 SLP221 T00780033 56014
KLBX 230753Z AUTO 35006KT 10SM CLR 08/03 A3019 RMK AO2 SLP223 T00830033
KLBX 230653Z AUTO 35004KT 10SM CLR 09/04 A3020 RMK AO2 SLP227 T00940039